sensor_id;sensor_type;location;lat;lon;timestamp;P1;durP1;ratioP1;P2;durP2;ratioP2
73642;SDS011;61938;48.652;9.292;2024-02-16T00:02:17;12.30;;;6.00;;
73642;SDS011;61938;48.652;9.292;2024-02-16T00:04:43;12.48;;;6.47;;
73642;SDS011;61938;48.652;9.292;2024-02-16T00:07:08;14.65;;;6.60;;
73642;SDS011;61938;48.652;9.292;2024-02-16T00:09:34;12.38;;;6.57;;
73642;SDS011;61938;48.652;9.292;2024-02-16T00:12:00;15.48;;;6.53;;
73642;SDS011;61938;48.652;9.292;2024-02-16T00:14:25;14.48;;;7.30;;
73642;SDS011;61938;48.652;9.292;2024-02-16T00:16:51;11.52;;;6.55;;
73642;SDS011;61938;48.652;9.292;2024-02-16T00:19:16;16.70;;;7.18;;
73642;SDS011;61938;48.652;9.292;2024-02-16T00:21:42;18.60;;;6.93;;
73642;SDS011;61938;48.652;9.292;2024-02-16T00:24:08;17.48;;;6.53;;
73642;SDS011;61938;48.652;9.292;2024-02-16T00:26:33;14.20;;;7.25;;
73642;SDS011;61938;48.652;9.292;2024-02-16T00:28:59;19.30;;;7.50;;
73642;SDS011;61938;48.652;9.292;2024-02-16T00:31:24;15.60;;;7.85;;
73642;SDS011;61938;48.652;9.292;2024-02-16T00:33:50;14.65;;;7.43;;
73642;SDS011;61938;48.652;9.292;2024-02-16T00:36:15;13.05;;;7.15;;
73642;SDS011;61938;48.652;9.292;2024-02-16T00:38:41;14.85;;;7.10;;
73642;SDS011;61938;48.652;9.292;2024-02-16T00:41:06;16.30;;;7.40;;
73642;SDS011;61938;48.652;9.292;2024-02-16T00:43:32;12.05;;;6.88;;
73642;SDS011;61938;48.652;9.292;2024-02-16T00:45:58;12.63;;;6.72;;
73642;SDS011;61938;48.652;9.292;2024-02-16T00:48:23;13.65;;;6.97;;
73642;SDS011;61938;48.652;9.292;2024-02-16T00:50:49;13.38;;;7.13;;
73642;SDS011;61938;48.652;9.292;2024-02-16T00:53:14;13.63;;;6.95;;
73642;SDS011;61938;48.652;9.292;2024-02-16T00:55:40;12.52;;;6.32;;
73642;SDS011;61938;48.652;9.292;2024-02-16T00:58:06;12.75;;;6.70;;
73642;SDS011;61938;48.652;9.292;2024-02-16T01:00:32;12.30;;;6.38;;
73642;SDS011;61938;48.652;9.292;2024-02-16T01:02:57;11.57;;;6.22;;
73642;SDS011;61938;48.652;9.292;2024-02-16T01:05:23;12.48;;;6.03;;
73642;SDS011;61938;48.652;9.292;2024-02-16T01:07:49;12.68;;;6.03;;
73642;SDS011;61938;48.652;9.292;2024-02-16T01:10:14;12.45;;;5.50;;
73642;SDS011;61938;48.652;9.292;2024-02-16T01:12:40;9.63;;;5.57;;
73642;SDS011;61938;48.652;9.292;2024-02-16T01:15:05;12.98;;;6.70;;
73642;SDS011;61938;48.652;9.292;2024-02-16T01:17:31;11.95;;;6.03;;
73642;SDS011;61938;48.652;9.292;2024-02-16T01:19:57;11.27;;;5.88;;
73642;SDS011;61938;48.652;9.292;2024-02-16T01:22:23;8.57;;;5.75;;
73642;SDS011;61938;48.652;9.292;2024-02-16T01:24:49;11.95;;;5.95;;
73642;SDS011;61938;48.652;9.292;2024-02-16T01:27:15;11.05;;;6.50;;
73642;SDS011;61938;48.652;9.292;2024-02-16T01:29:41;17.58;;;6.45;;
73642;SDS011;61938;48.652;9.292;2024-02-16T01:32:06;12.38;;;6.55;;
73642;SDS011;61938;48.652;9.292;2024-02-16T01:34:32;13.25;;;6.63;;
73642;SDS011;61938;48.652;9.292;2024-02-16T01:36:57;12.57;;;6.93;;
73642;SDS011;61938;48.652;9.292;2024-02-16T01:39:23;22.95;;;7.40;;
73642;SDS011;61938;48.652;9.292;2024-02-16T01:41:49;16.70;;;7.60;;
73642;SDS011;61938;48.652;9.292;2024-02-16T01:44:15;16.83;;;7.15;;
73642;SDS011;61938;48.652;9.292;2024-02-16T01:46:41;12.90;;;7.47;;
73642;SDS011;61938;48.652;9.292;2024-02-16T01:49:07;13.70;;;7.95;;
73642;SDS011;61938;48.652;9.292;2024-02-16T01:51:34;13.85;;;7.63;;
73642;SDS011;61938;48.652;9.292;2024-02-16T01:54:00;12.02;;;7.20;;
73642;SDS011;61938;48.652;9.292;2024-02-16T01:56:27;12.73;;;6.30;;
73642;SDS011;61938;48.652;9.292;2024-02-16T01:58:53;13.75;;;7.22;;
73642;SDS011;61938;48.652;9.292;2024-02-16T02:01:18;13.85;;;7.57;;
73642;SDS011;61938;48.652;9.292;2024-02-16T02:03:44;18.00;;;7.57;;
73642;SDS011;61938;48.652;9.292;2024-02-16T02:06:09;13.73;;;7.60;;
73642;SDS011;61938;48.652;9.292;2024-02-16T02:08:35;14.60;;;7.88;;
73642;SDS011;61938;48.652;9.292;2024-02-16T02:11:01;13.65;;;7.68;;
73642;SDS011;61938;48.652;9.292;2024-02-16T02:13:27;14.20;;;7.70;;
73642;SDS011;61938;48.652;9.292;2024-02-16T02:15:53;18.55;;;7.78;;
73642;SDS011;61938;48.652;9.292;2024-02-16T02:18:19;12.95;;;7.22;;
73642;SDS011;61938;48.652;9.292;2024-02-16T02:20:45;15.02;;;7.53;;
73642;SDS011;61938;48.652;9.292;2024-02-16T02:23:10;16.73;;;7.50;;
73642;SDS011;61938;48.652;9.292;2024-02-16T02:25:36;14.13;;;7.78;;
73642;SDS011;61938;48.652;9.292;2024-02-16T02:28:02;14.93;;;7.75;;
73642;SDS011;61938;48.652;9.292;2024-02-16T02:30:28;14.50;;;7.72;;
73642;SDS011;61938;48.652;9.292;2024-02-16T02:32:53;15.20;;;7.13;;
73642;SDS011;61938;48.652;9.292;2024-02-16T02:35:19;12.68;;;7.32;;
73642;SDS011;61938;48.652;9.292;2024-02-16T02:37:44;13.80;;;7.57;;
73642;SDS011;61938;48.652;9.292;2024-02-16T02:40:10;13.93;;;7.57;;
73642;SDS011;61938;48.652;9.292;2024-02-16T02:42:36;19.02;;;7.90;;
73642;SDS011;61938;48.652;9.292;2024-02-16T02:45:02;12.95;;;7.07;;
73642;SDS011;61938;48.652;9.292;2024-02-16T02:47:27;12.88;;;7.25;;
73642;SDS011;61938;48.652;9.292;2024-02-16T02:49:53;14.93;;;7.10;;
73642;SDS011;61938;48.652;9.292;2024-02-16T02:52:19;11.32;;;6.38;;
73642;SDS011;61938;48.652;9.292;2024-02-16T02:54:46;11.73;;;7.35;;
73642;SDS011;61938;48.652;9.292;2024-02-16T02:57:11;11.18;;;6.93;;
73642;SDS011;61938;48.652;9.292;2024-02-16T02:59:37;14.85;;;6.78;;
73642;SDS011;61938;48.652;9.292;2024-02-16T03:02:02;15.30;;;7.18;;
73642;SDS011;61938;48.652;9.292;2024-02-16T03:04:28;12.63;;;6.63;;
73642;SDS011;61938;48.652;9.292;2024-02-16T03:06:54;12.13;;;6.75;;
73642;SDS011;61938;48.652;9.292;2024-02-16T03:09:19;15.15;;;8.52;;
73642;SDS011;61938;48.652;9.292;2024-02-16T03:11:45;19.13;;;8.13;;
73642;SDS011;61938;48.652;9.292;2024-02-16T03:14:11;13.23;;;7.20;;
73642;SDS011;61938;48.652;9.292;2024-02-16T03:16:36;11.95;;;6.93;;
73642;SDS011;61938;48.652;9.292;2024-02-16T03:19:02;12.98;;;7.55;;
73642;SDS011;61938;48.652;9.292;2024-02-16T03:21:31;13.23;;;7.15;;
73642;SDS011;61938;48.652;9.292;2024-02-16T03:23:57;14.07;;;7.40;;
73642;SDS011;61938;48.652;9.292;2024-02-16T03:26:23;13.48;;;7.65;;
73642;SDS011;61938;48.652;9.292;2024-02-16T03:28:48;14.27;;;7.78;;
73642;SDS011;61938;48.652;9.292;2024-02-16T03:31:15;16.83;;;7.50;;
73642;SDS011;61938;48.652;9.292;2024-02-16T03:33:41;14.18;;;8.05;;
73642;SDS011;61938;48.652;9.292;2024-02-16T03:36:07;12.48;;;7.15;;
73642;SDS011;61938;48.652;9.292;2024-02-16T03:38:34;11.93;;;7.72;;
73642;SDS011;61938;48.652;9.292;2024-02-16T03:40:59;13.75;;;7.05;;
73642;SDS011;61938;48.652;9.292;2024-02-16T03:43:25;16.60;;;7.43;;
73642;SDS011;61938;48.652;9.292;2024-02-16T03:45:51;10.93;;;6.50;;
73642;SDS011;61938;48.652;9.292;2024-02-16T03:48:16;14.35;;;7.25;;
73642;SDS011;61938;48.652;9.292;2024-02-16T03:50:42;11.27;;;6.90;;
73642;SDS011;61938;48.652;9.292;2024-02-16T03:53:07;15.90;;;8.02;;
73642;SDS011;61938;48.652;9.292;2024-02-16T03:55:33;15.88;;;7.95;;
73642;SDS011;61938;48.652;9.292;2024-02-16T03:58:01;11.35;;;7.35;;
73642;SDS011;61938;48.652;9.292;2024-02-16T04:00:27;11.30;;;7.20;;
73642;SDS011;61938;48.652;9.292;2024-02-16T04:02:53;12.57;;;7.35;;
73642;SDS011;61938;48.652;9.292;2024-02-16T04:05:18;13.30;;;7.35;;
73642;SDS011;61938;48.652;9.292;2024-02-16T04:07:44;15.30;;;6.82;;
73642;SDS011;61938;48.652;9.292;2024-02-16T04:10:10;13.15;;;6.93;;
73642;SDS011;61938;48.652;9.292;2024-02-16T04:12:35;13.60;;;7.28;;
73642;SDS011;61938;48.652;9.292;2024-02-16T04:15:01;12.65;;;7.05;;
73642;SDS011;61938;48.652;9.292;2024-02-16T04:17:27;16.98;;;7.35;;
73642;SDS011;61938;48.652;9.292;2024-02-16T04:19:52;16.20;;;7.15;;
73642;SDS011;61938;48.652;9.292;2024-02-16T04:22:18;13.38;;;6.82;;
73642;SDS011;61938;48.652;9.292;2024-02-16T04:24:43;12.27;;;7.10;;
73642;SDS011;61938;48.652;9.292;2024-02-16T04:27:09;13.23;;;7.38;;
73642;SDS011;61938;48.652;9.292;2024-02-16T04:29:34;10.90;;;6.53;;
73642;SDS011;61938;48.652;9.292;2024-02-16T04:32:00;14.35;;;7.75;;
73642;SDS011;61938;48.652;9.292;2024-02-16T04:34:25;11.73;;;7.28;;
73642;SDS011;61938;48.652;9.292;2024-02-16T04:36:51;11.30;;;6.95;;
73642;SDS011;61938;48.652;9.292;2024-02-16T04:39:16;15.73;;;8.00;;
73642;SDS011;61938;48.652;9.292;2024-02-16T04:41:42;13.00;;;7.05;;
73642;SDS011;61938;48.652;9.292;2024-02-16T04:44:07;15.60;;;7.72;;
73642;SDS011;61938;48.652;9.292;2024-02-16T04:46:33;10.95;;;6.90;;
73642;SDS011;61938;48.652;9.292;2024-02-16T04:48:58;12.88;;;7.50;;
73642;SDS011;61938;48.652;9.292;2024-02-16T04:51:24;16.13;;;7.63;;
73642;SDS011;61938;48.652;9.292;2024-02-16T04:53:49;11.70;;;7.03;;
73642;SDS011;61938;48.652;9.292;2024-02-16T04:56:15;11.27;;;7.10;;
73642;SDS011;61938;48.652;9.292;2024-02-16T04:58:43;12.18;;;7.18;;
73642;SDS011;61938;48.652;9.292;2024-02-16T05:01:09;13.80;;;8.00;;
73642;SDS011;61938;48.652;9.292;2024-02-16T05:03:35;13.23;;;6.70;;
73642;SDS011;61938;48.652;9.292;2024-02-16T05:06:00;11.15;;;7.30;;
73642;SDS011;61938;48.652;9.292;2024-02-16T05:08:26;16.95;;;7.20;;
73642;SDS011;61938;48.652;9.292;2024-02-16T05:10:51;13.23;;;6.93;;
73642;SDS011;61938;48.652;9.292;2024-02-16T05:13:17;12.05;;;7.07;;
73642;SDS011;61938;48.652;9.292;2024-02-16T05:15:42;14.13;;;6.60;;
73642;SDS011;61938;48.652;9.292;2024-02-16T05:18:08;11.27;;;6.40;;
73642;SDS011;61938;48.652;9.292;2024-02-16T05:20:37;12.60;;;6.50;;
73642;SDS011;61938;48.652;9.292;2024-02-16T05:23:03;10.65;;;6.68;;
73642;SDS011;61938;48.652;9.292;2024-02-16T05:25:28;12.88;;;7.55;;
73642;SDS011;61938;48.652;9.292;2024-02-16T05:27:54;13.00;;;6.97;;
73642;SDS011;61938;48.652;9.292;2024-02-16T05:30:20;11.63;;;6.80;;
73642;SDS011;61938;48.652;9.292;2024-02-16T05:32:46;10.80;;;6.85;;
73642;SDS011;61938;48.652;9.292;2024-02-16T05:35:12;12.88;;;6.65;;
73642;SDS011;61938;48.652;9.292;2024-02-16T05:37:45;13.68;;;6.70;;
73642;SDS011;61938;48.652;9.292;2024-02-16T05:40:16;10.27;;;6.00;;
73642;SDS011;61938;48.652;9.292;2024-02-16T05:42:56;10.93;;;6.22;;
73642;SDS011;61938;48.652;9.292;2024-02-16T05:45:25;11.50;;;6.90;;
73642;SDS011;61938;48.652;9.292;2024-02-16T05:47:51;11.98;;;6.80;;
73642;SDS011;61938;48.652;9.292;2024-02-16T05:50:17;11.63;;;6.05;;
73642;SDS011;61938;48.652;9.292;2024-02-16T05:52:45;15.05;;;6.60;;
73642;SDS011;61938;48.652;9.292;2024-02-16T05:55:11;14.43;;;6.68;;
73642;SDS011;61938;48.652;9.292;2024-02-16T05:57:38;12.20;;;6.78;;
73642;SDS011;61938;48.652;9.292;2024-02-16T06:00:04;14.75;;;6.82;;
73642;SDS011;61938;48.652;9.292;2024-02-16T06:02:31;11.88;;;6.15;;
73642;SDS011;61938;48.652;9.292;2024-02-16T06:04:57;11.52;;;6.10;;
73642;SDS011;61938;48.652;9.292;2024-02-16T06:07:22;10.88;;;6.47;;
73642;SDS011;61938;48.652;9.292;2024-02-16T06:09:48;11.77;;;6.90;;
73642;SDS011;61938;48.652;9.292;2024-02-16T06:12:13;11.00;;;6.22;;
73642;SDS011;61938;48.652;9.292;2024-02-16T06:14:40;15.45;;;7.25;;
73642;SDS011;61938;48.652;9.292;2024-02-16T06:17:06;10.88;;;7.10;;
73642;SDS011;61938;48.652;9.292;2024-02-16T06:19:33;16.23;;;7.38;;
73642;SDS011;61938;48.652;9.292;2024-02-16T06:21:58;13.38;;;6.80;;
73642;SDS011;61938;48.652;9.292;2024-02-16T06:24:24;12.90;;;7.18;;
73642;SDS011;61938;48.652;9.292;2024-02-16T06:26:49;10.98;;;6.68;;
73642;SDS011;61938;48.652;9.292;2024-02-16T06:29:18;17.23;;;6.85;;
73642;SDS011;61938;48.652;9.292;2024-02-16T06:31:47;13.52;;;6.82;;
73642;SDS011;61938;48.652;9.292;2024-02-16T06:34:15;11.77;;;6.22;;
73642;SDS011;61938;48.652;9.292;2024-02-16T06:36:43;12.32;;;6.72;;
73642;SDS011;61938;48.652;9.292;2024-02-16T06:39:08;12.73;;;7.05;;
73642;SDS011;61938;48.652;9.292;2024-02-16T06:41:41;13.20;;;6.80;;
73642;SDS011;61938;48.652;9.292;2024-02-16T06:44:10;11.35;;;6.50;;
73642;SDS011;61938;48.652;9.292;2024-02-16T06:46:37;12.02;;;6.60;;
73642;SDS011;61938;48.652;9.292;2024-02-16T06:49:02;11.75;;;6.32;;
73642;SDS011;61938;48.652;9.292;2024-02-16T06:51:28;13.43;;;6.25;;
73642;SDS011;61938;48.652;9.292;2024-02-16T06:53:54;12.48;;;6.65;;
73642;SDS011;61938;48.652;9.292;2024-02-16T06:56:20;11.50;;;6.10;;
73642;SDS011;61938;48.652;9.292;2024-02-16T06:58:45;15.13;;;6.13;;
73642;SDS011;61938;48.652;9.292;2024-02-16T07:01:14;13.25;;;6.60;;
73642;SDS011;61938;48.652;9.292;2024-02-16T07:03:41;14.45;;;7.22;;
73642;SDS011;61938;48.652;9.292;2024-02-16T07:06:08;14.90;;;6.18;;
73642;SDS011;61938;48.652;9.292;2024-02-16T07:08:37;11.20;;;6.85;;
73642;SDS011;61938;48.652;9.292;2024-02-16T07:11:04;12.65;;;6.47;;
73642;SDS011;61938;48.652;9.292;2024-02-16T07:13:31;14.63;;;6.78;;
73642;SDS011;61938;48.652;9.292;2024-02-16T07:15:57;13.65;;;6.82;;
73642;SDS011;61938;48.652;9.292;2024-02-16T07:18:23;10.32;;;5.78;;
73642;SDS011;61938;48.652;9.292;2024-02-16T07:20:48;12.32;;;6.40;;
73642;SDS011;61938;48.652;9.292;2024-02-16T07:23:14;13.23;;;7.35;;
73642;SDS011;61938;48.652;9.292;2024-02-16T07:25:40;14.57;;;7.07;;
73642;SDS011;61938;48.652;9.292;2024-02-16T07:28:07;12.13;;;6.65;;
73642;SDS011;61938;48.652;9.292;2024-02-16T07:30:33;12.30;;;6.78;;
73642;SDS011;61938;48.652;9.292;2024-02-16T07:33:04;15.30;;;7.43;;
73642;SDS011;61938;48.652;9.292;2024-02-16T07:35:30;13.48;;;6.57;;
73642;SDS011;61938;48.652;9.292;2024-02-16T07:37:56;15.20;;;6.38;;
73642;SDS011;61938;48.652;9.292;2024-02-16T07:40:21;14.02;;;6.40;;
73642;SDS011;61938;48.652;9.292;2024-02-16T07:42:47;12.15;;;6.47;;
73642;SDS011;61938;48.652;9.292;2024-02-16T07:45:12;11.85;;;5.90;;
73642;SDS011;61938;48.652;9.292;2024-02-16T07:47:40;12.23;;;6.00;;
73642;SDS011;61938;48.652;9.292;2024-02-16T07:50:06;11.35;;;6.07;;
73642;SDS011;61938;48.652;9.292;2024-02-16T07:52:32;11.40;;;5.95;;
73642;SDS011;61938;48.652;9.292;2024-02-16T07:54:58;10.68;;;6.22;;
73642;SDS011;61938;48.652;9.292;2024-02-16T07:57:24;11.98;;;5.80;;
73642;SDS011;61938;48.652;9.292;2024-02-16T07:59:49;11.05;;;5.50;;
73642;SDS011;61938;48.652;9.292;2024-02-16T08:02:15;11.07;;;5.82;;
73642;SDS011;61938;48.652;9.292;2024-02-16T08:04:42;11.80;;;6.18;;
73642;SDS011;61938;48.652;9.292;2024-02-16T08:07:11;9.40;;;5.47;;
73642;SDS011;61938;48.652;9.292;2024-02-16T08:09:37;8.88;;;5.35;;
73642;SDS011;61938;48.652;9.292;2024-02-16T08:12:02;8.40;;;5.18;;
73642;SDS011;61938;48.652;9.292;2024-02-16T08:14:30;11.88;;;4.85;;
73642;SDS011;61938;48.652;9.292;2024-02-16T08:16:57;7.40;;;4.45;;
73642;SDS011;61938;48.652;9.292;2024-02-16T08:19:23;9.18;;;4.57;;
73642;SDS011;61938;48.652;9.292;2024-02-16T08:21:48;7.25;;;4.43;;
73642;SDS011;61938;48.652;9.292;2024-02-16T08:24:14;10.15;;;5.10;;
73642;SDS011;61938;48.652;9.292;2024-02-16T08:26:39;8.05;;;4.97;;
73642;SDS011;61938;48.652;9.292;2024-02-16T08:29:05;9.65;;;4.05;;
73642;SDS011;61938;48.652;9.292;2024-02-16T08:31:30;9.50;;;4.75;;
73642;SDS011;61938;48.652;9.292;2024-02-16T08:33:56;7.70;;;4.18;;
73642;SDS011;61938;48.652;9.292;2024-02-16T08:36:22;6.88;;;4.15;;
73642;SDS011;61938;48.652;9.292;2024-02-16T08:38:53;8.50;;;4.53;;
73642;SDS011;61938;48.652;9.292;2024-02-16T08:41:18;9.55;;;4.47;;
73642;SDS011;61938;48.652;9.292;2024-02-16T08:43:44;11.68;;;4.82;;
73642;SDS011;61938;48.652;9.292;2024-02-16T08:46:09;10.27;;;4.90;;
73642;SDS011;61938;48.652;9.292;2024-02-16T08:48:35;9.27;;;4.40;;
73642;SDS011;61938;48.652;9.292;2024-02-16T08:51:01;7.47;;;3.75;;
73642;SDS011;61938;48.652;9.292;2024-02-16T08:53:27;7.05;;;4.63;;
73642;SDS011;61938;48.652;9.292;2024-02-16T08:55:53;6.65;;;4.13;;
73642;SDS011;61938;48.652;9.292;2024-02-16T08:58:18;5.53;;;3.42;;
73642;SDS011;61938;48.652;9.292;2024-02-16T09:00:44;10.77;;;4.20;;
73642;SDS011;61938;48.652;9.292;2024-02-16T09:03:11;11.13;;;4.25;;
73642;SDS011;61938;48.652;9.292;2024-02-16T09:05:36;14.07;;;4.68;;
73642;SDS011;61938;48.652;9.292;2024-02-16T09:08:02;8.38;;;4.55;;
73642;SDS011;61938;48.652;9.292;2024-02-16T09:10:28;7.93;;;4.85;;
73642;SDS011;61938;48.652;9.292;2024-02-16T09:12:53;8.60;;;4.45;;
73642;SDS011;61938;48.652;9.292;2024-02-16T09:15:19;7.30;;;4.10;;
73642;SDS011;61938;48.652;9.292;2024-02-16T09:17:44;9.00;;;4.15;;
73642;SDS011;61938;48.652;9.292;2024-02-16T09:20:10;5.25;;;3.60;;
73642;SDS011;61938;48.652;9.292;2024-02-16T09:22:38;6.28;;;3.88;;
73642;SDS011;61938;48.652;9.292;2024-02-16T09:25:05;11.68;;;4.32;;
73642;SDS011;61938;48.652;9.292;2024-02-16T09:27:31;8.18;;;4.00;;
73642;SDS011;61938;48.652;9.292;2024-02-16T09:29:57;8.02;;;3.65;;
73642;SDS011;61938;48.652;9.292;2024-02-16T09:32:22;9.68;;;4.00;;
73642;SDS011;61938;48.652;9.292;2024-02-16T09:34:48;8.35;;;3.83;;
73642;SDS011;61938;48.652;9.292;2024-02-16T09:37:13;8.98;;;3.42;;
73642;SDS011;61938;48.652;9.292;2024-02-16T09:39:39;7.75;;;3.28;;
73642;SDS011;61938;48.652;9.292;2024-02-16T09:42:06;6.97;;;3.72;;
73642;SDS011;61938;48.652;9.292;2024-02-16T09:44:31;12.10;;;3.33;;
73642;SDS011;61938;48.652;9.292;2024-02-16T09:47:12;7.03;;;3.58;;
73642;SDS011;61938;48.652;9.292;2024-02-16T09:49:39;8.38;;;3.40;;
73642;SDS011;61938;48.652;9.292;2024-02-16T09:52:05;7.57;;;3.47;;
73642;SDS011;61938;48.652;9.292;2024-02-16T09:54:35;9.35;;;3.55;;
73642;SDS011;61938;48.652;9.292;2024-02-16T09:57:01;6.82;;;3.58;;
73642;SDS011;61938;48.652;9.292;2024-02-16T09:59:29;5.68;;;3.45;;
73642;SDS011;61938;48.652;9.292;2024-02-16T10:01:59;7.95;;;3.55;;
73642;SDS011;61938;48.652;9.292;2024-02-16T10:04:28;7.03;;;3.83;;
73642;SDS011;61938;48.652;9.292;2024-02-16T10:06:53;6.63;;;3.15;;
73642;SDS011;61938;48.652;9.292;2024-02-16T10:09:26;5.22;;;3.00;;
73642;SDS011;61938;48.652;9.292;2024-02-16T10:11:55;6.88;;;3.35;;
73642;SDS011;61938;48.652;9.292;2024-02-16T10:14:22;6.30;;;3.22;;
73642;SDS011;61938;48.652;9.292;2024-02-16T10:16:47;12.00;;;3.40;;
73642;SDS011;61938;48.652;9.292;2024-02-16T10:19:23;7.25;;;3.13;;
73642;SDS011;61938;48.652;9.292;2024-02-16T10:21:49;7.70;;;3.33;;
73642;SDS011;61938;48.652;9.292;2024-02-16T10:24:14;13.52;;;3.42;;
73642;SDS011;61938;48.652;9.292;2024-02-16T10:26:40;5.20;;;3.08;;
73642;SDS011;61938;48.652;9.292;2024-02-16T10:29:08;8.77;;;2.90;;
73642;SDS011;61938;48.652;9.292;2024-02-16T10:31:34;9.55;;;3.60;;
73642;SDS011;61938;48.652;9.292;2024-02-16T10:34:01;8.90;;;3.25;;
73642;SDS011;61938;48.652;9.292;2024-02-16T10:36:30;7.35;;;3.08;;
73642;SDS011;61938;48.652;9.292;2024-02-16T10:39:04;5.88;;;2.55;;
73642;SDS011;61938;48.652;9.292;2024-02-16T10:41:37;8.80;;;3.13;;
73642;SDS011;61938;48.652;9.292;2024-02-16T10:44:05;5.35;;;2.50;;
73642;SDS011;61938;48.652;9.292;2024-02-16T10:46:31;6.78;;;3.30;;
73642;SDS011;61938;48.652;9.292;2024-02-16T10:48:57;8.65;;;3.03;;
73642;SDS011;61938;48.652;9.292;2024-02-16T10:51:29;6.85;;;2.97;;
73642;SDS011;61938;48.652;9.292;2024-02-16T10:54:13;6.03;;;2.90;;
73642;SDS011;61938;48.652;9.292;2024-02-16T10:56:43;4.43;;;2.53;;
73642;SDS011;61938;48.652;9.292;2024-02-16T10:59:09;14.23;;;4.03;;
73642;SDS011;61938;48.652;9.292;2024-02-16T11:01:42;8.80;;;2.90;;
73642;SDS011;61938;48.652;9.292;2024-02-16T11:04:13;7.93;;;3.10;;
73642;SDS011;61938;48.652;9.292;2024-02-16T11:06:54;7.60;;;3.28;;
73642;SDS011;61938;48.652;9.292;2024-02-16T11:09:34;6.10;;;2.72;;
73642;SDS011;61938;48.652;9.292;2024-02-16T11:12:03;8.63;;;2.22;;
73642;SDS011;61938;48.652;9.292;2024-02-16T11:14:36;5.47;;;2.60;;
73642;SDS011;61938;48.652;9.292;2024-02-16T11:17:20;5.22;;;2.35;;
73642;SDS011;61938;48.652;9.292;2024-02-16T11:19:48;7.75;;;2.30;;
73642;SDS011;61938;48.652;9.292;2024-02-16T11:22:15;4.97;;;2.65;;
73642;SDS011;61938;48.652;9.292;2024-02-16T11:24:43;6.95;;;2.92;;
73642;SDS011;61938;48.652;9.292;2024-02-16T11:27:10;4.55;;;2.33;;
73642;SDS011;61938;48.652;9.292;2024-02-16T11:29:36;4.22;;;2.15;;
73642;SDS011;61938;48.652;9.292;2024-02-16T11:32:06;7.38;;;2.55;;
73642;SDS011;61938;48.652;9.292;2024-02-16T11:34:32;3.40;;;2.20;;
73642;SDS011;61938;48.652;9.292;2024-02-16T11:36:59;4.25;;;2.22;;
73642;SDS011;61938;48.652;9.292;2024-02-16T11:39:26;3.50;;;1.80;;
73642;SDS011;61938;48.652;9.292;2024-02-16T11:42:07;3.70;;;2.20;;
73642;SDS011;61938;48.652;9.292;2024-02-16T11:44:37;7.15;;;2.55;;
73642;SDS011;61938;48.652;9.292;2024-02-16T11:47:07;7.07;;;1.83;;
73642;SDS011;61938;48.652;9.292;2024-02-16T11:49:37;4.63;;;2.22;;
73642;SDS011;61938;48.652;9.292;2024-02-16T11:52:05;3.47;;;1.75;;
73642;SDS011;61938;48.652;9.292;2024-02-16T11:54:32;4.13;;;2.58;;
73642;SDS011;61938;48.652;9.292;2024-02-16T11:56:58;5.28;;;2.00;;
73642;SDS011;61938;48.652;9.292;2024-02-16T11:59:23;3.58;;;2.05;;
73642;SDS011;61938;48.652;9.292;2024-02-16T12:01:51;8.63;;;2.20;;
73642;SDS011;61938;48.652;9.292;2024-02-16T12:04:21;3.75;;;2.13;;
73642;SDS011;61938;48.652;9.292;2024-02-16T12:06:47;4.88;;;1.98;;
73642;SDS011;61938;48.652;9.292;2024-02-16T12:09:15;6.85;;;2.20;;
73642;SDS011;61938;48.652;9.292;2024-02-16T12:11:41;8.45;;;2.00;;
73642;SDS011;61938;48.652;9.292;2024-02-16T12:14:07;5.25;;;1.70;;
73642;SDS011;61938;48.652;9.292;2024-02-16T12:16:33;3.22;;;1.92;;
73642;SDS011;61938;48.652;9.292;2024-02-16T12:19:02;4.25;;;2.50;;
73642;SDS011;61938;48.652;9.292;2024-02-16T12:21:31;5.70;;;2.10;;
73642;SDS011;61938;48.652;9.292;2024-02-16T12:23:56;6.43;;;2.13;;
73642;SDS011;61938;48.652;9.292;2024-02-16T12:26:22;7.78;;;1.75;;
73642;SDS011;61938;48.652;9.292;2024-02-16T12:28:48;6.35;;;2.00;;
73642;SDS011;61938;48.652;9.292;2024-02-16T12:31:20;6.88;;;2.20;;
73642;SDS011;61938;48.652;9.292;2024-02-16T12:33:46;3.88;;;1.92;;
73642;SDS011;61938;48.652;9.292;2024-02-16T12:36:11;4.22;;;2.00;;
73642;SDS011;61938;48.652;9.292;2024-02-16T12:38:37;4.05;;;1.85;;
73642;SDS011;61938;48.652;9.292;2024-02-16T12:41:02;3.33;;;1.80;;
73642;SDS011;61938;48.652;9.292;2024-02-16T12:43:28;5.20;;;2.25;;
73642;SDS011;61938;48.652;9.292;2024-02-16T12:45:54;3.90;;;2.42;;
73642;SDS011;61938;48.652;9.292;2024-02-16T12:48:20;5.57;;;2.58;;
73642;SDS011;61938;48.652;9.292;2024-02-16T12:50:45;6.32;;;2.40;;
73642;SDS011;61938;48.652;9.292;2024-02-16T12:53:12;7.30;;;2.50;;
73642;SDS011;61938;48.652;9.292;2024-02-16T12:55:37;5.47;;;2.78;;
73642;SDS011;61938;48.652;9.292;2024-02-16T12:58:03;8.70;;;2.50;;
73642;SDS011;61938;48.652;9.292;2024-02-16T13:00:30;5.40;;;2.42;;
73642;SDS011;61938;48.652;9.292;2024-02-16T13:02:56;14.80;;;2.90;;
73642;SDS011;61938;48.652;9.292;2024-02-16T13:05:21;3.67;;;2.25;;
73642;SDS011;61938;48.652;9.292;2024-02-16T13:07:46;7.47;;;2.70;;
73642;SDS011;61938;48.652;9.292;2024-02-16T13:10:12;8.23;;;2.25;;
73642;SDS011;61938;48.652;9.292;2024-02-16T13:12:38;7.97;;;2.75;;
73642;SDS011;61938;48.652;9.292;2024-02-16T13:15:04;7.75;;;2.90;;
73642;SDS011;61938;48.652;9.292;2024-02-16T13:17:31;8.70;;;2.47;;
73642;SDS011;61938;48.652;9.292;2024-02-16T13:19:58;10.20;;;2.42;;
73642;SDS011;61938;48.652;9.292;2024-02-16T13:22:31;7.15;;;2.20;;
73642;SDS011;61938;48.652;9.292;2024-02-16T13:25:03;7.97;;;2.67;;
73642;SDS011;61938;48.652;9.292;2024-02-16T13:27:30;6.32;;;2.28;;
73642;SDS011;61938;48.652;9.292;2024-02-16T13:29:56;8.98;;;2.97;;
73642;SDS011;61938;48.652;9.292;2024-02-16T13:32:22;16.77;;;7.40;;
73642;SDS011;61938;48.652;9.292;2024-02-16T13:34:48;14.73;;;5.63;;
73642;SDS011;61938;48.652;9.292;2024-02-16T13:37:13;12.93;;;4.50;;
73642;SDS011;61938;48.652;9.292;2024-02-16T13:39:39;7.18;;;3.67;;
73642;SDS011;61938;48.652;9.292;2024-02-16T13:42:04;9.15;;;3.50;;
73642;SDS011;61938;48.652;9.292;2024-02-16T13:44:31;7.15;;;3.80;;
73642;SDS011;61938;48.652;9.292;2024-02-16T13:46:56;9.82;;;4.03;;
73642;SDS011;61938;48.652;9.292;2024-02-16T13:49:22;13.95;;;3.63;;
73642;SDS011;61938;48.652;9.292;2024-02-16T13:51:48;8.55;;;3.05;;
73642;SDS011;61938;48.652;9.292;2024-02-16T13:54:13;5.78;;;2.70;;
73642;SDS011;61938;48.652;9.292;2024-02-16T13:56:39;10.25;;;3.10;;
73642;SDS011;61938;48.652;9.292;2024-02-16T13:59:05;9.40;;;3.03;;
73642;SDS011;61938;48.652;9.292;2024-02-16T14:01:32;4.97;;;2.42;;
73642;SDS011;61938;48.652;9.292;2024-02-16T14:03:58;8.40;;;3.05;;
73642;SDS011;61938;48.652;9.292;2024-02-16T14:06:24;6.88;;;2.97;;
73642;SDS011;61938;48.652;9.292;2024-02-16T14:08:50;6.03;;;2.88;;
73642;SDS011;61938;48.652;9.292;2024-02-16T14:11:17;10.40;;;3.10;;
73642;SDS011;61938;48.652;9.292;2024-02-16T14:13:43;7.70;;;2.80;;
73642;SDS011;61938;48.652;9.292;2024-02-16T14:16:09;7.25;;;3.10;;
73642;SDS011;61938;48.652;9.292;2024-02-16T14:18:35;12.32;;;3.58;;
73642;SDS011;61938;48.652;9.292;2024-02-16T14:21:02;5.70;;;3.15;;
73642;SDS011;61938;48.652;9.292;2024-02-16T14:23:28;8.57;;;3.15;;
73642;SDS011;61938;48.652;9.292;2024-02-16T14:25:54;10.23;;;3.30;;
73642;SDS011;61938;48.652;9.292;2024-02-16T14:28:20;8.38;;;3.55;;
73642;SDS011;61938;48.652;9.292;2024-02-16T14:30:46;8.90;;;3.97;;
73642;SDS011;61938;48.652;9.292;2024-02-16T14:33:11;7.47;;;3.80;;
73642;SDS011;61938;48.652;9.292;2024-02-16T14:35:36;10.30;;;4.63;;
73642;SDS011;61938;48.652;9.292;2024-02-16T14:38:02;6.50;;;3.20;;